Time;durP1;ratioP1;P1;durP2;ratioP2;P2;SDS_P1;SDS_P2;PMS_P1;PMS_P2;Temp;Humidity;BMP_temperature;BMP_pressure;BME280_temperature;BME280_humidity;BME280_pressure;Samples;Min_cycle;Max_cycle;Signal;HPM_P1;HPM_P2
2022/04/12 00:00:46;;;;;;;10.63;5.97;;;;;;;;;;5131618;27;20051;-64
2022/04/12 00:03:13;;;;;;;10.13;6.15;;;;;;;;;;5107970;27;20051;-63
2022/04/12 00:05:40;;;;;;;10.60;5.90;;;;;;;;;;5106603;27;20039;-64
2022/04/12 00:08:07;;;;;;;13.00;6.10;;;;;;;;;;5130321;27;20217;-64
2022/04/12 00:10:33;;;;;;;9.85;6.10;;;;;;;;;;5126295;27;20035;-63
2022/04/12 00:13:00;;;;;;;10.63;6.05;;;;;;;;;;5107548;27;20035;-64
2022/04/12 00:15:26;;;;;;;11.38;6.53;;;;;;;;;;5128094;27;20051;-64
2022/04/12 00:20:38;;;;;;;12.95;5.85;;;;;;;;;;5129925;27;21693;-64
2022/04/12 00:23:05;;;;;;;10.77;6.00;;;;;;;;;;5124881;27;20056;-64
2022/04/12 00:25:31;;;;;;;11.07;5.80;;;;;;;;;;5125105;27;20108;-64
2022/04/12 00:27:57;;;;;;;16.08;6.50;;;;;;;;;;5124623;27;20065;-63
2022/04/12 00:30:24;;;;;;;13.27;6.32;;;;;;;;;;5121656;27;20051;-64
2022/04/12 00:32:52;;;;;;;10.80;6.25;;;;;;;;;;5127755;27;20097;-63
2022/04/12 00:35:18;;;;;;;9.45;5.60;;;;;;;;;;5126811;27;20153;-64
2022/04/12 00:37:45;;;;;;;13.60;6.28;;;;;;;;;;5109744;27;20054;-64
2022/04/12 00:40:12;;;;;;;10.93;5.70;;;;;;;;;;5126542;27;20067;-64
2022/04/12 00:42:38;;;;;;;11.43;6.00;;;;;;;;;;5129348;27;20047;-63
2022/04/12 00:45:05;;;;;;;10.23;5.50;;;;;;;;;;5127243;28;20035;-64
2022/04/12 00:47:31;;;;;;;9.80;5.60;;;;;;;;;;5125891;28;20184;-63
2022/04/12 00:49:57;;;;;;;9.20;5.75;;;;;;;;;;5130002;28;20039;-63
2022/04/12 00:52:24;;;;;;;11.80;6.47;;;;;;;;;;5122964;28;20079;-64
2022/04/12 00:54:53;;;;;;;11.23;5.95;;;;;;;;;;5109080;28;20047;-63
2022/04/12 00:57:19;;;;;;;8.45;5.32;;;;;;;;;;5108429;28;20058;-63
2022/04/12 00:59:46;;;;;;;9.82;5.18;;;;;;;;;;5112918;28;20419;-64
2022/04/12 01:02:12;;;;;;;11.02;5.60;;;;;;;;;;5127495;28;20403;-63
2022/04/12 01:04:38;;;;;;;11.05;5.63;;;;;;;;;;5130001;28;20343;-63
2022/04/12 01:07:05;;;;;;;13.93;6.18;;;;;;;;;;5127658;28;20127;-63
2022/04/12 01:09:32;;;;;;;10.05;5.25;;;;;;;;;;5122871;28;20099;-63
2022/04/12 01:11:58;;;;;;;11.57;6.13;;;;;;;;;;5107744;28;20062;-64
2022/04/12 01:14:25;;;;;;;11.52;5.97;;;;;;;;;;5129864;27;20143;-63
2022/04/12 01:16:52;;;;;;;11.25;5.75;;;;;;;;;;5126284;27;20043;-64
2022/04/12 01:19:18;;;;;;;10.70;5.55;;;;;;;;;;5132812;27;20031;-63
2022/04/12 01:21:51;;;;;;;8.75;5.13;;;;;;;;;;5132047;27;20039;-63
2022/04/12 01:24:17;;;;;;;8.90;5.13;;;;;;;;;;5112778;27;20043;-63
2022/04/12 01:26:43;;;;;;;11.68;5.53;;;;;;;;;;5133178;27;20123;-64
2022/04/12 01:29:09;;;;;;;12.93;5.90;;;;;;;;;;5130523;27;20464;-64
2022/04/12 01:31:35;;;;;;;11.93;5.97;;;;;;;;;;5126837;27;20450;-63
2022/04/12 01:34:02;;;;;;;10.45;5.57;;;;;;;;;;5110698;27;20046;-63
2022/04/12 01:36:28;;;;;;;13.18;5.90;;;;;;;;;;5110726;27;20047;-63
2022/04/12 01:38:54;;;;;;;14.00;5.93;;;;;;;;;;5111608;27;20047;-64
2022/04/12 01:41:20;;;;;;;13.10;6.15;;;;;;;;;;5134824;27;20079;-63
2022/04/12 01:43:46;;;;;;;12.20;5.57;;;;;;;;;;5133193;27;20035;-64
2022/04/12 01:46:13;;;;;;;12.07;6.68;;;;;;;;;;5132941;27;20402;-63
2022/04/12 01:48:39;;;;;;;13.80;5.80;;;;;;;;;;5127440;27;20497;-63
2022/04/12 01:51:05;;;;;;;12.05;6.32;;;;;;;;;;5111327;27;20450;-63
2022/04/12 01:53:31;;;;;;;11.45;6.00;;;;;;;;;;5126194;27;20036;-63
2022/04/12 01:55:57;;;;;;;9.15;6.03;;;;;;;;;;5115551;27;20064;-63
2022/04/12 01:58:23;;;;;;;12.23;6.05;;;;;;;;;;5128260;27;20035;-64
2022/04/12 02:00:49;;;;;;;11.07;6.10;;;;;;;;;;5132954;27;20035;-63
2022/04/12 02:03:16;;;;;;;11.02;5.82;;;;;;;;;;5132851;27;20035;-64
2022/04/12 02:05:42;;;;;;;11.52;6.43;;;;;;;;;;5132622;27;20031;-64
2022/04/12 02:08:08;;;;;;;9.48;6.25;;;;;;;;;;5132063;27;20410;-63
2022/04/12 02:10:34;;;;;;;10.30;6.68;;;;;;;;;;5132178;27;20077;-64
2022/04/12 02:13:01;;;;;;;13.07;6.97;;;;;;;;;;5116501;27;20070;-63
2022/04/12 02:15:27;;;;;;;10.07;5.88;;;;;;;;;;5123441;27;20046;-64
2022/04/12 02:17:53;;;;;;;10.35;6.30;;;;;;;;;;5130389;27;20040;-63
2022/04/12 02:20:19;;;;;;;13.07;6.25;;;;;;;;;;5113192;27;20035;-63
2022/04/12 02:22:45;;;;;;;12.95;7.07;;;;;;;;;;5112776;27;20043;-64
2022/04/12 02:25:11;;;;;;;11.98;6.70;;;;;;;;;;5129647;27;20043;-63
2022/04/12 02:27:38;;;;;;;13.95;7.30;;;;;;;;;;5132818;27;20039;-64
2022/04/12 02:30:05;;;;;;;10.65;6.68;;;;;;;;;;5115263;27;20066;-63
2022/04/12 02:32:32;;;;;;;14.48;7.55;;;;;;;;;;5114420;27;20525;-63
2022/04/12 02:35:00;;;;;;;12.80;6.85;;;;;;;;;;5129843;27;20356;-64
2022/04/12 02:37:27;;;;;;;15.43;7.53;;;;;;;;;;5110884;27;20047;-63
2022/04/12 02:39:53;;;;;;;13.20;6.80;;;;;;;;;;5128670;27;20039;-64
2022/04/12 02:42:19;;;;;;;12.98;7.25;;;;;;;;;;5128542;27;20035;-63
2022/04/12 02:44:45;;;;;;;13.77;7.47;;;;;;;;;;5111502;27;20075;-63
2022/04/12 02:47:12;;;;;;;16.27;8.02;;;;;;;;;;5106631;27;20486;-63
2022/04/12 02:49:38;;;;;;;12.90;7.72;;;;;;;;;;5114547;27;20042;-63
2022/04/12 02:52:04;;;;;;;12.85;8.15;;;;;;;;;;5132529;27;20073;-64
2022/04/12 02:54:30;;;;;;;11.45;7.25;;;;;;;;;;5129194;27;20047;-64
2022/04/12 02:56:57;;;;;;;14.57;8.25;;;;;;;;;;5128160;27;20062;-64
2022/04/12 02:59:24;;;;;;;13.43;7.97;;;;;;;;;;5107937;27;20471;-63
2022/04/12 03:01:50;;;;;;;13.65;7.55;;;;;;;;;;5128753;27;20047;-63
2022/04/12 03:04:16;;;;;;;12.00;7.68;;;;;;;;;;5132147;27;20498;-63
2022/04/12 03:06:42;;;;;;;14.70;7.95;;;;;;;;;;5128802;27;20509;-64
2022/04/12 03:09:08;;;;;;;16.05;8.40;;;;;;;;;;5130067;27;20035;-63
2022/04/12 03:11:35;;;;;;;15.13;7.18;;;;;;;;;;5131500;27;20035;-64
2022/04/12 03:14:02;;;;;;;13.35;8.05;;;;;;;;;;5129885;27;20043;-63
2022/04/12 03:16:29;;;;;;;11.57;8.02;;;;;;;;;;5132705;27;20112;-63
2022/04/12 03:18:55;;;;;;;14.00;8.57;;;;;;;;;;5129215;27;20180;-63
2022/04/12 03:21:23;;;;;;;13.57;8.73;;;;;;;;;;5131967;27;20112;-64
2022/04/12 03:23:49;;;;;;;16.38;8.52;;;;;;;;;;5111406;27;20359;-64
2022/04/12 03:26:15;;;;;;;15.00;8.05;;;;;;;;;;5110818;27;20054;-63
2022/04/12 03:28:41;;;;;;;13.82;8.32;;;;;;;;;;5111595;27;20047;-63
2022/04/12 03:31:07;;;;;;;14.07;8.30;;;;;;;;;;5128306;27;20035;-63
2022/04/12 03:33:33;;;;;;;15.15;8.77;;;;;;;;;;5110204;27;20164;-63
2022/04/12 03:35:59;;;;;;;12.13;7.93;;;;;;;;;;5126792;27;20490;-63
2022/04/12 03:38:26;;;;;;;14.82;8.15;;;;;;;;;;5126234;27;20067;-63
2022/04/12 03:40:52;;;;;;;13.80;8.35;;;;;;;;;;5108161;27;20061;-63
2022/04/12 03:43:18;;;;;;;16.55;9.55;;;;;;;;;;5128806;27;20500;-63
2022/04/12 03:45:44;;;;;;;14.55;8.40;;;;;;;;;;5107707;27;20068;-63
2022/04/12 03:48:10;;;;;;;17.05;9.38;;;;;;;;;;5126733;27;20435;-63
2022/04/12 03:50:37;;;;;;;15.05;9.25;;;;;;;;;;5123614;27;20130;-64
2022/04/12 03:53:03;;;;;;;13.32;8.63;;;;;;;;;;5107615;27;20054;-63
2022/04/12 03:55:30;;;;;;;16.08;8.60;;;;;;;;;;5127395;27;20054;-63
2022/04/12 03:57:58;;;;;;;16.50;8.63;;;;;;;;;;5129356;27;20624;-63
2022/04/12 04:00:24;;;;;;;17.23;8.95;;;;;;;;;;5131922;27;20041;-64
2022/04/12 04:02:50;;;;;;;16.45;8.70;;;;;;;;;;5127623;27;20047;-63
2022/04/12 04:05:16;;;;;;;15.75;9.27;;;;;;;;;;5129041;27;20440;-63
2022/04/12 04:07:42;;;;;;;16.10;8.93;;;;;;;;;;5128753;27;20035;-63
2022/04/12 04:10:08;;;;;;;15.90;9.35;;;;;;;;;;5111462;27;20103;-63
2022/04/12 04:12:35;;;;;;;14.07;8.88;;;;;;;;;;5131193;27;20041;-63
2022/04/12 04:15:03;;;;;;;14.55;9.20;;;;;;;;;;5130405;27;20058;-63
2022/04/12 04:17:29;;;;;;;16.52;9.70;;;;;;;;;;5129910;27;20089;-63
2022/04/12 04:19:55;;;;;;;16.35;9.60;;;;;;;;;;5128644;27;20049;-63
2022/04/12 04:22:21;;;;;;;15.43;9.93;;;;;;;;;;5130928;27;20534;-63
2022/04/12 04:24:47;;;;;;;17.08;10.40;;;;;;;;;;5127830;27;20134;-63
2022/04/12 04:27:13;;;;;;;14.40;8.75;;;;;;;;;;5125516;27;20063;-64
2022/04/12 04:29:40;;;;;;;15.25;9.70;;;;;;;;;;5124536;27;20119;-63
2022/04/12 04:32:06;;;;;;;15.48;10.07;;;;;;;;;;5106258;27;20059;-63
2022/04/12 04:34:32;;;;;;;15.43;10.07;;;;;;;;;;5109722;27;20454;-63
2022/04/12 04:36:58;;;;;;;15.65;9.55;;;;;;;;;;5109913;28;20059;-63
2022/04/12 04:39:24;;;;;;;14.18;10.02;;;;;;;;;;5128180;27;20067;-63
2022/04/12 04:41:50;;;;;;;17.38;10.20;;;;;;;;;;5129743;27;20108;-64
2022/04/12 04:44:17;;;;;;;19.15;10.63;;;;;;;;;;5130509;27;20059;-64
2022/04/12 04:46:43;;;;;;;16.58;10.00;;;;;;;;;;5126778;28;20478;-63
2022/04/12 04:49:09;;;;;;;16.05;9.82;;;;;;;;;;5105782;28;21822;-63
2022/04/12 04:51:37;;;;;;;17.08;10.43;;;;;;;;;;5112246;28;20039;-63
2022/04/12 04:54:03;;;;;;;16.08;9.40;;;;;;;;;;5125704;28;20477;-64
2022/04/12 04:56:29;;;;;;;15.32;9.95;;;;;;;;;;5123005;28;20453;-64
2022/04/12 04:58:55;;;;;;;15.82;9.68;;;;;;;;;;5121554;28;20374;-63
2022/04/12 05:01:21;;;;;;;16.05;10.65;;;;;;;;;;5119332;28;20050;-64
2022/04/12 05:03:50;;;;;;;14.43;9.95;;;;;;;;;;5127149;28;20550;-64
2022/04/12 05:06:16;;;;;;;17.13;10.15;;;;;;;;;;5127993;28;20125;-64
2022/04/12 05:08:42;;;;;;;13.85;9.05;;;;;;;;;;5109221;28;20410;-64
2022/04/12 05:11:08;;;;;;;13.88;9.88;;;;;;;;;;5126998;28;20474;-63
2022/04/12 05:13:34;;;;;;;18.27;10.40;;;;;;;;;;5123226;28;20045;-64
2022/04/12 05:16:00;;;;;;;16.15;10.15;;;;;;;;;;5120858;28;20090;-64
2022/04/12 05:18:27;;;;;;;14.68;9.23;;;;;;;;;;5121275;28;20494;-64
2022/04/12 05:20:53;;;;;;;17.23;9.80;;;;;;;;;;5119039;28;20117;-64
2022/04/12 05:23:19;;;;;;;18.38;10.10;;;;;;;;;;5106009;28;20051;-64
2022/04/12 05:25:45;;;;;;;19.50;9.77;;;;;;;;;;5125590;28;20084;-63
2022/04/12 05:28:11;;;;;;;16.33;10.00;;;;;;;;;;5126523;28;20394;-64
2022/04/12 05:30:37;;;;;;;15.95;10.23;;;;;;;;;;5111942;28;20039;-64
2022/04/12 05:33:03;;;;;;;15.23;10.35;;;;;;;;;;5109343;28;20035;-64
2022/04/12 05:35:30;;;;;;;15.75;9.90;;;;;;;;;;5107456;28;20376;-64
2022/04/12 05:37:56;;;;;;;15.90;10.10;;;;;;;;;;5092448;28;20051;-64
2022/04/12 05:40:23;;;;;;;16.38;10.35;;;;;;;;;;5089983;28;20173;-64
2022/04/12 05:42:51;;;;;;;14.60;10.15;;;;;;;;;;5072297;28;20055;-64
2022/04/12 05:45:17;;;;;;;14.85;9.57;;;;;;;;;;5087939;28;20341;-64
2022/04/12 05:47:49;;;;;;;13.45;9.25;;;;;;;;;;5085269;28;20507;-64
2022/04/12 05:50:16;;;;;;;17.10;10.77;;;;;;;;;;5085724;28;20054;-64
2022/04/12 05:52:43;;;;;;;15.65;10.05;;;;;;;;;;5085280;28;20048;-63
2022/04/12 05:55:10;;;;;;;17.02;10.68;;;;;;;;;;5088178;28;20046;-64
2022/04/12 05:57:37;;;;;;;18.35;10.30;;;;;;;;;;5087260;28;20044;-63
2022/04/12 06:00:06;;;;;;;18.45;10.65;;;;;;;;;;5089712;28;20415;-63
2022/04/12 06:02:32;;;;;;;17.73;10.27;;;;;;;;;;5091524;28;20042;-63
2022/04/12 06:04:59;;;;;;;16.17;10.13;;;;;;;;;;5091617;28;20043;-63
2022/04/12 06:07:30;;;;;;;14.98;9.75;;;;;;;;;;5091102;28;20122;-63
2022/04/12 06:09:56;;;;;;;19.85;10.88;;;;;;;;;;5089220;28;20518;-63
2022/04/12 06:12:22;;;;;;;16.45;9.93;;;;;;;;;;5090201;28;20171;-63
2022/04/12 06:14:48;;;;;;;16.40;10.23;;;;;;;;;;5090990;28;20426;-64
2022/04/12 06:17:14;;;;;;;14.45;9.27;;;;;;;;;;5088907;28;20394;-63
2022/04/12 06:19:40;;;;;;;17.25;11.35;;;;;;;;;;5092239;28;20113;-63
2022/04/12 06:22:06;;;;;;;17.48;10.68;;;;;;;;;;5090489;28;20036;-64
2022/04/12 06:24:33;;;;;;;16.35;9.95;;;;;;;;;;5091711;28;20047;-63
2022/04/12 06:26:59;;;;;;;15.57;10.48;;;;;;;;;;5092715;28;20073;-64
2022/04/12 06:29:25;;;;;;;16.30;11.23;;;;;;;;;;5092679;28;20036;-64
2022/04/12 06:31:51;;;;;;;17.10;10.20;;;;;;;;;;5090777;28;20447;-63
2022/04/12 06:34:18;;;;;;;15.63;9.18;;;;;;;;;;5093457;28;20048;-64
2022/04/12 06:36:44;;;;;;;14.88;10.38;;;;;;;;;;5117296;27;20047;-64
2022/04/12 06:39:10;;;;;;;14.73;9.60;;;;;;;;;;5106707;27;20099;-64
2022/04/12 06:41:36;;;;;;;14.13;10.30;;;;;;;;;;5105051;27;20052;-64
2022/04/12 06:44:02;;;;;;;15.73;10.48;;;;;;;;;;5109276;27;20038;-64
2022/04/12 06:46:28;;;;;;;17.17;10.07;;;;;;;;;;5090643;27;20139;-64
2022/04/12 06:48:55;;;;;;;15.25;9.10;;;;;;;;;;5126644;27;20031;-64
2022/04/12 06:51:21;;;;;;;17.13;10.02;;;;;;;;;;5108281;27;20047;-64
2022/04/12 06:53:50;;;;;;;15.65;10.88;;;;;;;;;;5124032;27;20092;-64
2022/04/12 06:56:17;;;;;;;18.17;9.68;;;;;;;;;;5125188;27;20442;-64
2022/04/12 06:58:43;;;;;;;18.50;10.98;;;;;;;;;;5123845;27;20267;-64
2022/04/12 07:01:09;;;;;;;17.75;10.32;;;;;;;;;;5126881;27;20051;-64
2022/04/12 07:03:35;;;;;;;16.80;10.10;;;;;;;;;;5127556;27;20518;-64
2022/04/12 07:06:01;;;;;;;15.65;10.20;;;;;;;;;;5103650;27;20515;-64
2022/04/12 07:08:27;;;;;;;16.77;10.18;;;;;;;;;;5105696;27;20435;-64
2022/04/12 07:10:54;;;;;;;15.50;9.65;;;;;;;;;;5106561;27;20589;-64
2022/04/12 07:13:20;;;;;;;15.13;10.38;;;;;;;;;;5119428;27;20447;-64
2022/04/12 07:15:46;;;;;;;15.73;10.32;;;;;;;;;;5125517;27;20064;-63
2022/04/12 07:18:12;;;;;;;19.02;10.25;;;;;;;;;;5123694;27;20085;-65
2022/04/12 07:20:39;;;;;;;16.10;10.20;;;;;;;;;;5106259;27;20051;-64
2022/04/12 07:23:05;;;;;;;15.98;9.98;;;;;;;;;;5125814;27;20057;-64
2022/04/12 07:25:31;;;;;;;16.65;9.75;;;;;;;;;;5105752;27;20050;-64
2022/04/12 07:27:57;;;;;;;14.02;10.00;;;;;;;;;;5120224;27;20035;-64
2022/04/12 07:30:23;;;;;;;16.98;9.88;;;;;;;;;;5124966;27;20042;-64
2022/04/12 07:32:49;;;;;;;16.05;9.80;;;;;;;;;;5123820;27;20050;-64
2022/04/12 07:35:15;;;;;;;14.88;10.07;;;;;;;;;;5103553;28;20052;-64
2022/04/12 07:37:43;;;;;;;16.40;10.80;;;;;;;;;;5104908;28;20047;-64
2022/04/12 07:40:09;;;;;;;16.65;10.18;;;;;;;;;;5102098;28;20097;-64
2022/04/12 07:42:36;;;;;;;21.85;10.65;;;;;;;;;;5101654;28;20086;-64
2022/04/12 07:45:02;;;;;;;16.65;10.35;;;;;;;;;;5103682;28;20043;-64
2022/04/12 07:47:28;;;;;;;13.20;9.10;;;;;;;;;;5103368;28;20426;-64
2022/04/12 07:49:55;;;;;;;15.63;9.43;;;;;;;;;;5103475;28;20130;-64
2022/04/12 07:52:21;;;;;;;15.27;9.75;;;;;;;;;;5105018;28;20368;-64
2022/04/12 07:54:47;;;;;;;15.75;10.50;;;;;;;;;;5103117;28;20109;-64
2022/04/12 07:57:13;;;;;;;18.20;11.10;;;;;;;;;;5102164;28;20043;-64
2022/04/12 07:59:39;;;;;;;15.30;10.05;;;;;;;;;;5105610;28;20130;-64
2022/04/12 08:02:06;;;;;;;17.08;9.80;;;;;;;;;;5103857;28;20039;-64
2022/04/12 08:04:32;;;;;;;17.88;10.73;;;;;;;;;;5104170;28;20086;-64
2022/04/12 08:06:59;;;;;;;15.85;9.60;;;;;;;;;;5101611;28;20032;-64
2022/04/12 08:09:25;;;;;;;14.40;9.20;;;;;;;;;;5097130;28;20032;-64
2022/04/12 08:11:51;;;;;;;14.13;9.43;;;;;;;;;;5100714;28;20489;-64
2022/04/12 08:14:17;;;;;;;18.92;10.27;;;;;;;;;;5101794;28;20063;-64
2022/04/12 08:16:44;;;;;;;17.55;9.02;;;;;;;;;;5101064;28;20138;-64
2022/04/12 08:19:10;;;;;;;16.13;9.60;;;;;;;;;;5106926;28;20056;-64
2022/04/12 08:21:37;;;;;;;14.57;9.85;;;;;;;;;;5101952;28;20509;-64
2022/04/12 08:24:04;;;;;;;16.02;9.20;;;;;;;;;;5101956;28;20071;-64
2022/04/12 08:26:30;;;;;;;14.93;9.48;;;;;;;;;;5103629;28;20039;-64
2022/04/12 08:28:57;;;;;;;14.45;8.98;;;;;;;;;;5100744;28;20058;-64
2022/04/12 08:31:23;;;;;;;15.95;10.23;;;;;;;;;;5101032;28;20449;-64
2022/04/12 08:33:49;;;;;;;13.40;9.07;;;;;;;;;;5101996;28;20059;-64
2022/04/12 08:36:16;;;;;;;13.65;9.05;;;;;;;;;;5116549;27;20395;-64
2022/04/12 08:38:43;;;;;;;15.60;9.55;;;;;;;;;;5103944;28;20550;-64
2022/04/12 08:41:10;;;;;;;15.75;10.13;;;;;;;;;;5104689;27;20133;-64
2022/04/12 08:43:38;;;;;;;17.05;9.23;;;;;;;;;;5131336;27;20143;-63
2022/04/12 08:46:05;;;;;;;13.48;9.75;;;;;;;;;;5112741;28;20487;-64
2022/04/12 08:48:32;;;;;;;12.65;9.18;;;;;;;;;;5110984;28;20050;-64
2022/04/12 08:50:59;;;;;;;14.88;9.57;;;;;;;;;;5129760;28;20167;-64
2022/04/12 08:53:25;;;;;;;16.55;9.88;;;;;;;;;;5129679;28;20039;-64
2022/04/12 08:55:52;;;;;;;14.13;9.77;;;;;;;;;;5128686;28;20161;-64
2022/04/12 08:58:18;;;;;;;16.17;8.90;;;;;;;;;;5131971;28;20034;-64
2022/04/12 09:00:45;;;;;;;13.90;9.43;;;;;;;;;;5131232;28;20054;-64
2022/04/12 09:03:17;;;;;;;16.17;9.70;;;;;;;;;;5130574;28;20035;-64
2022/04/12 09:05:43;;;;;;;17.58;10.05;;;;;;;;;;5109681;28;20461;-64
2022/04/12 09:08:23;;;;;;;15.25;9.65;;;;;;;;;;5132257;28;20089;-64
2022/04/12 09:10:55;;;;;;;13.80;9.35;;;;;;;;;;5132993;28;20087;-64
2022/04/12 09:13:21;;;;;;;13.25;9.20;;;;;;;;;;5132023;28;20039;-64
2022/04/12 09:15:47;;;;;;;13.48;9.25;;;;;;;;;;5132802;28;20068;-64
2022/04/12 09:18:13;;;;;;;13.63;9.65;;;;;;;;;;5132038;28;20075;-64
2022/04/12 09:20:42;;;;;;;12.85;9.27;;;;;;;;;;5131791;28;20072;-64
2022/04/12 09:23:17;;;;;;;13.90;9.32;;;;;;;;;;5112401;28;20047;-64
2022/04/12 09:25:54;;;;;;;15.77;9.45;;;;;;;;;;5097430;28;20043;-64
2022/04/12 09:28:20;;;;;;;13.82;9.38;;;;;;;;;;5130040;28;20119;-64
2022/04/12 09:30:46;;;;;;;17.67;8.50;;;;;;;;;;5114089;28;20051;-64
2022/04/12 09:33:14;;;;;;;13.65;8.88;;;;;;;;;;5112254;28;20503;-63
2022/04/12 09:35:40;;;;;;;16.45;10.00;;;;;;;;;;5128466;27;20058;-64
2022/04/12 09:38:10;;;;;;;13.45;9.07;;;;;;;;;;5133299;27;20102;-64
2022/04/12 09:40:36;;;;;;;14.70;10.25;;;;;;;;;;5135406;27;20035;-64
2022/04/12 09:43:05;;;;;;;17.23;8.73;;;;;;;;;;5134590;27;20047;-64
2022/04/12 09:45:33;;;;;;;14.65;9.20;;;;;;;;;;5134998;27;20047;-64
2022/04/12 09:48:01;;;;;;;13.77;9.43;;;;;;;;;;5134461;27;20043;-64
2022/04/12 09:50:29;;;;;;;14.68;10.23;;;;;;;;;;5134121;27;20110;-64
2022/04/12 09:52:56;;;;;;;13.80;9.35;;;;;;;;;;5134911;27;20490;-64
2022/04/12 09:55:39;;;;;;;12.82;8.68;;;;;;;;;;5134431;27;20027;-64
2022/04/12 09:58:06;;;;;;;14.10;9.82;;;;;;;;;;5113177;27;20043;-64
2022/04/12 10:00:32;;;;;;;11.93;9.00;;;;;;;;;;5110839;27;20043;-64
2022/04/12 10:03:02;;;;;;;15.98;9.35;;;;;;;;;;5134624;27;20066;-64
2022/04/12 10:05:28;;;;;;;14.85;9.70;;;;;;;;;;5134742;27;20045;-64
2022/04/12 10:07:57;;;;;;;15.30;9.77;;;;;;;;;;5133168;27;20548;-64
2022/04/12 10:10:23;;;;;;;12.23;8.70;;;;;;;;;;5132611;27;20494;-64
2022/04/12 10:12:50;;;;;;;13.65;8.90;;;;;;;;;;5134950;27;20090;-64
2022/04/12 10:15:16;;;;;;;15.45;10.02;;;;;;;;;;5134342;27;20058;-64
2022/04/12 10:17:43;;;;;;;12.80;9.07;;;;;;;;;;5133757;27;20129;-64
2022/04/12 10:20:10;;;;;;;14.43;8.63;;;;;;;;;;5114315;27;20375;-64
2022/04/12 10:22:36;;;;;;;13.02;8.70;;;;;;;;;;5131624;27;20099;-64
2022/04/12 10:25:03;;;;;;;12.82;9.02;;;;;;;;;;5133792;27;20039;-64
2022/04/12 10:27:29;;;;;;;11.18;8.15;;;;;;;;;;5116083;27;20043;-64
2022/04/12 10:30:14;;;;;;;12.07;8.68;;;;;;;;;;5134323;27;20035;-64
2022/04/12 10:32:57;;;;;;;11.38;8.13;;;;;;;;;;5112298;27;20047;-64
2022/04/12 10:35:23;;;;;;;13.45;9.02;;;;;;;;;;5114902;27;20087;-64
2022/04/12 10:37:52;;;;;;;12.65;8.93;;;;;;;;;;5113319;27;20079;-64
2022/04/12 10:40:18;;;;;;;12.93;8.50;;;;;;;;;;5134591;27;20443;-64
2022/04/12 10:42:45;;;;;;;14.35;9.65;;;;;;;;;;5115787;27;20039;-64
2022/04/12 10:45:11;;;;;;;13.80;8.75;;;;;;;;;;5132487;27;20035;-64
2022/04/12 10:47:41;;;;;;;14.68;9.48;;;;;;;;;;5134079;27;20045;-65
2022/04/12 10:50:10;;;;;;;14.43;9.63;;;;;;;;;;5133803;27;20035;-64
2022/04/12 10:52:37;;;;;;;13.38;9.60;;;;;;;;;;5114070;27;20051;-64
2022/04/12 10:55:04;;;;;;;12.27;8.50;;;;;;;;;;5131772;27;20031;-65
2022/04/12 10:57:30;;;;;;;13.75;9.20;;;;;;;;;;5133927;27;20050;-65
2022/04/12 10:59:59;;;;;;;13.73;8.52;;;;;;;;;;5112955;27;20050;-64
2022/04/12 11:02:30;;;;;;;11.75;8.73;;;;;;;;;;5114747;27;20039;-65
2022/04/12 11:04:56;;;;;;;12.13;9.23;;;;;;;;;;5129347;27;20442;-65
2022/04/12 11:07:27;;;;;;;15.70;9.02;;;;;;;;;;5097522;27;20130;-65
2022/04/12 11:10:08;;;;;;;11.68;8.48;;;;;;;;;;5132181;27;20035;-65
2022/04/12 11:12:42;;;;;;;12.32;8.27;;;;;;;;;;5131298;27;20072;-64
2022/04/12 11:15:21;;;;;;;14.15;8.57;;;;;;;;;;5113127;27;20042;-64
2022/04/12 11:17:48;;;;;;;15.95;9.38;;;;;;;;;;5133828;27;20457;-65
2022/04/12 11:20:21;;;;;;;12.05;8.23;;;;;;;;;;5128577;27;20104;-65
2022/04/12 11:22:55;;;;;;;15.52;8.95;;;;;;;;;;5131623;27;20043;-65
2022/04/12 11:25:22;;;;;;;13.95;9.52;;;;;;;;;;5130607;27;20075;-64
2022/04/12 11:27:56;;;;;;;12.75;8.43;;;;;;;;;;5130467;27;20043;-65
2022/04/12 11:30:24;;;;;;;14.77;8.85;;;;;;;;;;5131373;27;20059;-64
2022/04/12 11:32:50;;;;;;;15.10;8.52;;;;;;;;;;5130647;27;20043;-65
2022/04/12 11:35:19;;;;;;;15.95;8.77;;;;;;;;;;5128251;27;20135;-65
2022/04/12 11:37:46;;;;;;;15.95;8.55;;;;;;;;;;5094695;27;20086;-64
2022/04/12 11:40:12;;;;;;;12.45;8.82;;;;;;;;;;5133011;27;20115;-65
2022/04/12 11:42:38;;;;;;;11.77;8.80;;;;;;;;;;5113580;27;20073;-65
2022/04/12 11:45:05;;;;;;;12.77;8.30;;;;;;;;;;5128775;27;20035;-65
2022/04/12 11:47:37;;;;;;;13.02;8.50;;;;;;;;;;5113602;27;20432;-65
2022/04/12 11:50:04;;;;;;;14.00;8.65;;;;;;;;;;5133154;27;20039;-64
2022/04/12 11:52:30;;;;;;;13.20;8.70;;;;;;;;;;5130836;27;20043;-65
2022/04/12 11:55:00;;;;;;;12.10;8.20;;;;;;;;;;5132315;27;20082;-65
2022/04/12 11:57:27;;;;;;;13.35;8.93;;;;;;;;;;5130392;27;20059;-64
2022/04/12 11:59:56;;;;;;;14.75;8.40;;;;;;;;;;5097450;27;20043;-65
2022/04/12 12:02:24;;;;;;;12.38;8.43;;;;;;;;;;5128433;27;20077;-65
2022/04/12 12:04:52;;;;;;;13.18;8.90;;;;;;;;;;5113310;27;20047;-64
2022/04/12 12:07:19;;;;;;;14.18;8.40;;;;;;;;;;5132814;27;20478;-64
2022/04/12 12:09:53;;;;;;;14.18;8.15;;;;;;;;;;5113326;27;20533;-65
2022/04/12 12:12:19;;;;;;;15.30;8.10;;;;;;;;;;5114485;27;20051;-64
2022/04/12 12:14:45;;;;;;;15.07;7.95;;;;;;;;;;5128317;27;20123;-64
2022/04/12 12:17:18;;;;;;;12.88;8.60;;;;;;;;;;5128354;27;20050;-64
2022/04/12 12:19:45;;;;;;;12.70;7.85;;;;;;;;;;5124716;27;20054;-64
2022/04/12 12:22:12;;;;;;;12.77;8.52;;;;;;;;;;5132476;27;20470;-64
2022/04/12 12:24:49;;;;;;;11.90;7.20;;;;;;;;;;5113218;27;20035;-64
2022/04/12 12:27:25;;;;;;;13.90;8.70;;;;;;;;;;5113408;27;20398;-64
2022/04/12 12:29:51;;;;;;;10.95;7.43;;;;;;;;;;5131352;27;20055;-64
2022/04/12 12:32:18;;;;;;;13.98;7.60;;;;;;;;;;5132145;27;20371;-64
2022/04/12 12:34:45;;;;;;;12.65;8.20;;;;;;;;;;5113948;27;20551;-64
2022/04/12 12:37:11;;;;;;;12.73;7.68;;;;;;;;;;5131164;27;20395;-64
2022/04/12 12:39:39;;;;;;;15.85;8.00;;;;;;;;;;5106326;28;20031;-64
2022/04/12 12:42:06;;;;;;;15.68;7.93;;;;;;;;;;5123544;27;20070;-64
2022/04/12 12:44:34;;;;;;;13.30;7.97;;;;;;;;;;5122191;27;20050;-64
2022/04/12 12:47:03;;;;;;;13.07;8.30;;;;;;;;;;5118159;27;20046;-65
2022/04/12 12:49:36;;;;;;;12.85;7.20;;;;;;;;;;5124945;27;20054;-64
2022/04/12 12:52:04;;;;;;;13.88;7.90;;;;;;;;;;5104213;28;20655;-64
2022/04/12 12:54:30;;;;;;;13.48;8.18;;;;;;;;;;5103560;28;20043;-64
2022/04/12 12:56:56;;;;;;;13.43;7.22;;;;;;;;;;5102264;28;20036;-64
2022/04/12 12:59:28;;;;;;;13.40;7.93;;;;;;;;;;5101633;28;20043;-64
2022/04/12 13:01:55;;;;;;;12.50;7.63;;;;;;;;;;5102301;28;20463;-64
2022/04/12 13:04:22;;;;;;;12.80;7.38;;;;;;;;;;5105054;28;20039;-64
2022/04/12 13:06:58;;;;;;;12.63;7.95;;;;;;;;;;5099784;28;20067;-64
2022/04/12 13:09:25;;;;;;;12.93;8.60;;;;;;;;;;5122130;27;20556;-64
2022/04/12 13:11:51;;;;;;;13.60;7.80;;;;;;;;;;5126157;27;20397;-64
2022/04/12 13:14:17;;;;;;;16.38;9.82;;;;;;;;;;5105814;27;20390;-64
2022/04/12 13:16:43;;;;;;;20.38;11.57;;;;;;;;;;5109767;27;20441;-64
2022/04/12 13:19:09;;;;;;;18.63;11.80;;;;;;;;;;5123760;27;20575;-64
2022/04/12 13:21:35;;;;;;;13.98;8.40;;;;;;;;;;5106556;27;20043;-64
2022/04/12 13:24:01;;;;;;;15.18;9.18;;;;;;;;;;5106223;27;20067;-64
2022/04/12 13:26:28;;;;;;;13.20;8.02;;;;;;;;;;5108396;27;20035;-64
2022/04/12 13:28:54;;;;;;;14.23;9.05;;;;;;;;;;5108408;27;20511;-65
2022/04/12 13:31:20;;;;;;;15.00;9.18;;;;;;;;;;5106019;27;20075;-65
2022/04/12 13:33:46;;;;;;;15.35;9.13;;;;;;;;;;5107183;27;20058;-64
2022/04/12 13:36:12;;;;;;;13.57;9.15;;;;;;;;;;5113653;28;20143;-65
2022/04/12 13:38:38;;;;;;;13.57;8.38;;;;;;;;;;5093886;28;20487;-65
2022/04/12 13:41:05;;;;;;;12.90;8.32;;;;;;;;;;5110863;28;20071;-65
2022/04/12 13:43:31;;;;;;;17.58;9.60;;;;;;;;;;5112149;28;20047;-65
2022/04/12 13:45:57;;;;;;;11.85;8.65;;;;;;;;;;5113730;28;20478;-65
2022/04/12 13:48:23;;;;;;;13.45;8.52;;;;;;;;;;5105820;28;20511;-65
2022/04/12 13:50:51;;;;;;;14.23;9.23;;;;;;;;;;5098997;28;20097;-65
2022/04/12 13:53:17;;;;;;;12.75;9.60;;;;;;;;;;5101641;28;20115;-65
2022/04/12 13:55:43;;;;;;;20.13;10.10;;;;;;;;;;5105548;28;20135;-65
2022/04/12 13:58:10;;;;;;;14.75;9.73;;;;;;;;;;5105013;28;20249;-65
2022/04/12 14:00:36;;;;;;;16.85;9.27;;;;;;;;;;5103024;28;20392;-65
2022/04/12 14:03:02;;;;;;;13.95;10.20;;;;;;;;;;5108410;28;20032;-65
2022/04/12 14:05:28;;;;;;;13.00;9.30;;;;;;;;;;5109648;28;20440;-65
2022/04/12 14:07:57;;;;;;;17.75;10.80;;;;;;;;;;5108963;27;20146;-65
2022/04/12 14:10:23;;;;;;;15.40;9.65;;;;;;;;;;5110430;28;20096;-65
2022/04/12 14:12:49;;;;;;;15.10;10.00;;;;;;;;;;5108872;28;20066;-64
2022/04/12 14:15:16;;;;;;;14.00;9.02;;;;;;;;;;5107999;28;20119;-65
2022/04/12 14:17:42;;;;;;;17.33;9.75;;;;;;;;;;5107396;28;20050;-64
2022/04/12 14:20:08;;;;;;;15.10;10.55;;;;;;;;;;5108663;28;20040;-64
2022/04/12 14:22:35;;;;;;;14.02;9.95;;;;;;;;;;5108316;28;20046;-64
2022/04/12 14:25:01;;;;;;;17.33;10.18;;;;;;;;;;5103925;28;20519;-64
2022/04/12 14:27:27;;;;;;;15.88;10.80;;;;;;;;;;5105961;28;20035;-64
2022/04/12 14:29:53;;;;;;;15.60;10.00;;;;;;;;;;5102918;28;20123;-64